Warning: Javascript must be enabled to use all the features on this page!


Page Loading - Please Wait...

Click to hideNews Bulletins

Peak Streamflow for the Nation

USGS 01394500 Rahway River near Springfield NJ

Union County, New Jersey
Hydrologic Unit Code 02030104
Latitude  40°41'15", Longitude  74°18'42" NAD83
Drainage area 25.5  square miles
Gage datum 66.17 feet above NGVD29
Output formats
Table
Graph
Tab-separated file
peakfq (watstore) format
Reselect output format
Water
Year
Date Gage
Height
(feet)
Stream-
flow
(cfs)
1938 1938-07-23 7.41 2,050
1939 1939-02-03 4.32 699
1940 1940-05-31 5.60 1,140
1941 1941-02-07 4.90 885
1942 1942-08-09 6.07 1,320
1943 1942-12-30 4.20 663
1944 1944-03-13 4.69 815
1945 1945-09-19 6.20 1,370
1946 1946-06-02 5.16 975
1947 1947-04-05 4.14 646
1948 1947-11-08 5.98 1,280
1949 1949-01-06 4.75 834
1950 1950-03-23 3.61 501
1951 1951-03-30 5.10 954
1952 1952-06-01 5.97 1,280
1953 1953-03-13 6.10 1,330
1954 1954-09-11 5.08 947
1955 1955-08-13 5.95 1,270
1956 1955-10-14 4.13 643
1957 1957-04-05 3.75 538
1958 1958-02-28 4.78 844
1959 1959-08-09 4.90 885
1960 1960-09-12 5.27 911
1961 1961-04-16 4.35 708
1962 1962-03-12 6.58 1,530
1963 1963-03-06 4.18 675
1964 1963-11-07 4.48 748
1965 1965-02-08 4.76 838
1966 1966-09-22 6.56 1,520
1967 1967-03-07 5.70 1,170
1968 1968-05-29 8.50 3,370
1969 1969-07-29 6.54 1,510
1970 1970-07-31 5.69 1,170
1971 1971-08-28 8.54 3,430
1972 1972-06-22 5.67 1,160
1973 1973-08-02 9.76 5,430
1974 1973-12-21 7.20 1,870
1975 1975-07-14 8.31 3,110
1976 1976-08-10 5.15 960
1977 1977-03-22 7.26 1,950
1978 1977-11-08 7.44 2,180
1979 1979-01-24 6.72 1,540
1980 1980-03-21 6.10 1,250
1981 1981-05-11 5.15 926
1982 1982-01-04 6.92 1,650
1983 1983-04-10 6.34 1,360
1984 1984-04-05 6.95 1,660
1985 1985-09-27 6.39 1,410
1986 1985-11-17 5.88 1,210
1987 1987-07-14 6.06 1,290
1988 1988-07-26 5.77 1,170
1989 1989-09-19 6.68 1,590
1990 1989-10-20 5.18 936
1991 1991-03-04 6.29 1,400
1992 1992-06-05 8.63 3,460
1993 1993-04-01 6.08 1,300
1994 1994-01-28 6.53 1,520
1995 1995-07-18 5.72 1,150
1996 1996-01-19 6.55 1,530
1997 1997-07-25 9.56 5,150
1998 1998-04-02 6.51 1,400
1999 1999-09-16 10.67 7,990
2000 2000-05-18 4.86 768
2001 2000-12-17 6.06 1,170
2002 2002-05-18 5.07 824
2003 2003-06-21 6.02 1,150
2004 2004-07-27 6.62 1,460
2005 2005-03-28 6.35 1,370
2006 2005-10-09 6.68 1,520
2007 2007-04-15 9.35 4,690
2008 2008-09-06 7.29 1,900
2009 2008-12-12 6.36 1,370
2010 2010-03-13 8.08 2,600
2011 2011-08-28 10.88 8,620
2012 2011-12-08 6.59 1,480
2013 2013-06-08 6.19 1,300
2014 2014-04-30 8.58 3,310
2015 2015-06-15 6.91 1,640
2016 2016-02-25 6.67 1,520
2017 2016-11-29   927
2018 2018-04-16 7.96 2,220
2019 2019-07-17 7.06 1,560
2020 2020-07-10 6.72 1,370